createdAt,value
2023-04-01T00:05:01.212Z,97928.28
2023-04-01T00:10:11.788Z,97931.61
2023-04-01T00:15:19.282Z,97926.24
2023-04-01T00:20:27.943Z,97924.88
2023-04-01T00:25:36.421Z,97921.10
2023-04-01T00:30:44.622Z,97921.70
2023-04-01T00:35:52.926Z,97925.02
2023-04-01T00:41:02.360Z,97921.58
2023-04-01T00:46:09.930Z,97922.08
2023-04-01T00:51:23.511Z,97919.58
2023-04-01T00:56:38.270Z,97921.16
2023-04-01T01:01:46.832Z,97923.08
2023-04-01T01:07:03.059Z,97927.34
2023-04-01T01:12:16.486Z,97921.41
2023-04-01T01:17:35.086Z,97918.06
2023-04-01T01:22:56.004Z,97914.36
2023-04-01T01:28:18.054Z,97918.10
2023-04-01T01:33:43.663Z,97919.09
2023-04-01T01:38:53.855Z,97919.59
2023-04-01T01:44:02.929Z,97915.35
2023-04-01T01:49:13.570Z,97910.93
2023-04-01T01:54:22.199Z,97906.40
2023-04-01T01:59:31.180Z,97905.59
2023-04-01T02:04:40.817Z,97907.63
2023-04-01T02:09:48.715Z,97905.17
2023-04-01T02:15:02.154Z,97906.21
2023-04-01T02:20:16.389Z,97901.38
2023-04-01T02:25:29.824Z,97899.19
2023-04-01T02:30:39.716Z,97900.94
2023-04-01T02:35:48.961Z,97904.73
2023-04-01T02:41:03.347Z,97905.09
2023-04-01T02:46:11.846Z,97906.12
2023-04-01T02:51:20.460Z,97901.50
2023-04-01T02:56:28.927Z,97900.47
2023-04-01T03:01:37.718Z,97901.56
2023-04-01T03:06:46.282Z,97905.12
2023-04-01T03:11:54.866Z,97905.80
2023-04-01T03:17:02.885Z,97907.79
2023-04-01T03:22:11.355Z,97910.36
2023-04-01T03:27:18.923Z,97905.61
2023-04-01T03:32:28.781Z,97908.49
2023-04-01T03:37:37.718Z,97909.33
2023-04-01T03:42:46.144Z,97908.77
2023-04-01T03:47:55.152Z,97913.47
2023-04-01T03:53:03.834Z,97912.81
2023-04-01T03:58:12.248Z,97910.66
2023-04-01T04:03:21.655Z,97915.23
2023-04-01T04:08:30.152Z,97917.67
2023-04-01T04:13:38.870Z,97928.10
2023-04-01T04:18:47.885Z,97926.30
2023-04-01T04:23:56.495Z,97925.67
2023-04-01T04:29:05.075Z,97931.92
2023-04-01T04:34:13.615Z,97931.04
2023-04-01T04:39:21.975Z,97932.81
2023-04-01T04:44:31.119Z,97931.29
2023-04-01T04:49:40.007Z,97939.61
2023-04-01T04:54:50.084Z,97942.52
2023-04-01T04:59:57.587Z,97942.31
2023-04-01T05:05:25.276Z,97941.71
2023-04-01T05:10:33.701Z,97949.90
2023-04-01T05:15:42.529Z,97947.93
2023-04-01T05:20:55.921Z,97948.24
2023-04-01T05:26:08.613Z,97949.30
2023-04-01T05:31:17.113Z,97952.23
2023-04-01T05:36:27.832Z,97954.25
2023-04-01T05:41:37.628Z,97953.69
2023-04-01T05:46:46.173Z,97957.30
2023-04-01T05:52:00.866Z,97963.32
2023-04-01T05:57:09.609Z,97965.95
2023-04-01T06:02:19.373Z,97971.90
2023-04-01T06:07:27.719Z,97971.09
2023-04-01T06:12:49.206Z,97974.34
2023-04-01T06:18:30.192Z,97976.45
2023-04-01T06:23:51.110Z,97976.64
2023-04-01T06:29:44.867Z,97981.38
2023-04-01T06:35:19.707Z,97990.66
2023-04-01T06:40:56.869Z,97993.44
2023-04-01T06:46:12.385Z,97992.09
2023-04-01T06:51:57.966Z,97999.02
2023-04-01T06:57:37.024Z,97999.73
2023-04-01T07:02:55.542Z,98003.45
2023-04-01T07:08:07.950Z,98009.31
2023-04-01T07:13:20.630Z,98008.29
2023-04-01T07:18:40.716Z,98011.88
2023-04-01T07:23:50.482Z,98016.31
2023-04-01T07:29:20.108Z,98017.27
2023-04-01T07:34:42.291Z,98019.19
2023-04-01T07:40:03.906Z,98024.27
2023-04-01T07:45:27.142Z,98030.52
2023-04-01T07:50:43.127Z,98033.09
2023-04-01T07:56:01.607Z,98038.16
2023-04-01T08:01:23.262Z,98042.03
2023-04-01T08:06:35.875Z,98050.42
2023-04-01T08:11:58.824Z,98050.63
2023-04-01T08:17:35.453Z,98050.16
2023-04-01T08:22:47.920Z,98057.35
2023-04-01T08:28:12.010Z,98059.20
2023-04-01T08:33:27.017Z,98061.01
2023-04-01T08:38:47.753Z,98069.35
2023-04-01T08:44:22.613Z,98070.48
2023-04-01T08:49:59.150Z,98077.37
2023-04-01T08:55:49.284Z,98078.98
2023-04-01T09:01:00.399Z,98082.10
2023-04-01T09:06:39.663Z,98085.38
2023-04-01T09:12:04.606Z,98094.41
2023-04-01T09:17:41.322Z,98096.68
2023-04-01T09:23:04.220Z,98102.27
2023-04-01T09:28:21.251Z,98102.31
2023-04-01T09:34:04.954Z,98111.48
2023-04-01T09:39:40.086Z,98110.73
2023-04-01T09:44:57.667Z,98123.65
2023-04-01T09:50:26.808Z,98127.52
2023-04-01T09:56:17.493Z,98129.66
2023-04-01T10:01:51.442Z,98130.13
2023-04-01T10:07:25.317Z,98136.23
2023-04-01T10:13:00.539Z,98136.41
2023-04-01T10:18:48.624Z,98144.31
2023-04-01T10:24:17.846Z,98147.50
2023-04-01T10:30:23.624Z,98142.92
2023-04-01T10:36:12.735Z,98151.53
2023-04-01T10:42:05.404Z,98159.96
2023-04-01T10:47:49.003Z,98161.52
2023-04-01T10:53:33.646Z,98162.98
2023-04-01T10:59:28.604Z,98162.67
2023-04-01T11:05:30.445Z,98171.63
2023-04-01T11:11:37.321Z,98178.95
2023-04-01T11:17:00.547Z,98183.55
2023-04-01T11:22:26.623Z,98190.27
2023-04-01T11:27:53.382Z,98192.84
2023-04-01T11:33:06.445Z,98194.77
2023-04-01T11:38:27.508Z,98198.33
2023-04-01T11:43:46.863Z,98202.16
2023-04-01T11:49:39.879Z,98205.30
2023-04-01T11:55:11.793Z,98211.65
2023-04-01T12:00:34.485Z,98218.50
2023-04-01T12:05:48.617Z,98222.27
2023-04-01T12:11:02.781Z,98228.94
2023-04-01T12:16:22.915Z,98230.17
2023-04-01T12:21:38.004Z,98237.48
2023-04-01T12:27:04.176Z,98238.84
2023-04-01T12:32:24.164Z,98247.44
2023-04-01T12:37:43.100Z,98246.28
2023-04-01T12:43:07.329Z,98250.16
2023-04-01T12:48:40.228Z,98257.26
2023-04-01T12:54:08.475Z,98259.61
2023-04-01T12:59:32.760Z,98269.49
2023-04-01T13:05:01.856Z,98271.94
2023-04-01T13:10:16.601Z,98277.30
2023-04-01T13:15:31.933Z,98284.05
2023-04-01T13:20:52.359Z,98290.91
2023-04-01T13:26:16.342Z,98298.45
2023-04-01T13:31:36.888Z,98300.61
2023-04-01T13:36:53.855Z,98305.02
2023-04-01T13:42:14.486Z,98309.20
2023-04-01T13:47:47.249Z,98312.08
2023-04-01T13:53:17.223Z,98321.23
2023-04-01T13:58:48.880Z,98324.19
2023-04-01T14:04:37.409Z,98331.33
2023-04-01T14:10:13.674Z,98337.45
2023-04-01T14:15:41.785Z,98339.14
2023-04-01T14:20:57.023Z,98348.76
2023-04-01T14:26:34.518Z,98355.30
2023-04-01T14:32:05.620Z,98356.98
2023-04-01T14:37:25.980Z,98363.54
2023-04-01T14:42:58.724Z,98367.89
2023-04-01T14:48:18.437Z,98377.13
2023-04-01T14:53:33.764Z,98385.13
2023-04-01T14:58:52.979Z,98391.82
2023-04-01T15:04:08.225Z,98400.23
2023-04-01T15:09:24.996Z,98403.61
2023-04-01T15:14:49.247Z,98408.94
2023-04-01T15:20:14.906Z,98417.89
2023-04-01T15:25:40.262Z,98417.44
2023-04-01T15:30:57.791Z,98425.59
2023-04-01T15:36:16.961Z,98434.51
2023-04-01T15:41:32.296Z,98438.13
2023-04-01T15:46:49.284Z,98445.41
2023-04-01T15:52:14.544Z,98449.94
2023-04-01T15:57:31.841Z,98456.86
2023-04-01T16:02:47.863Z,98464.77
2023-04-01T16:08:12.297Z,98475.23
2023-04-01T16:13:32.587Z,98485.59
2023-04-01T16:19:00.290Z,98489.63
2023-04-01T16:24:16.319Z,98494.98
2023-04-01T16:29:33.853Z,98502.14
2023-04-01T16:34:46.219Z,98507.64
2023-04-01T16:40:05.061Z,98508.88
2023-04-01T16:45:27.851Z,98516.04
2023-04-01T16:50:48.212Z,98526.46
2023-04-01T16:56:02.085Z,98535.83
2023-04-01T17:01:15.601Z,98544.00
2023-04-01T17:06:34.473Z,98552.06
2023-04-01T17:11:50.024Z,98563.83
2023-04-01T17:17:05.140Z,98570.06
2023-04-01T17:22:25.018Z,98570.36
2023-04-01T17:27:43.173Z,98584.11
2023-04-01T17:33:03.010Z,98598.80
2023-04-01T17:38:22.464Z,98605.40
2023-04-01T17:43:42.090Z,98608.71
2023-04-01T17:48:54.962Z,98622.46
2023-04-01T17:54:18.398Z,98627.89
2023-04-01T17:59:34.965Z,98636.59
2023-04-01T18:04:55.672Z,98639.88
2023-04-01T18:10:16.987Z,98646.81
2023-04-01T18:15:34.334Z,98652.65
2023-04-01T18:20:56.504Z,98658.75
2023-04-01T18:26:14.279Z,98666.58
2023-04-01T18:31:25.852Z,98671.86
2023-04-01T18:36:44.558Z,98676.52
2023-04-01T18:42:02.707Z,98677.52
2023-04-01T18:47:20.216Z,98689.54
2023-04-01T18:52:34.578Z,98695.60
2023-04-01T18:57:49.522Z,98697.69
2023-04-01T19:03:05.096Z,98696.80
2023-04-01T19:08:23.065Z,98708.31
2023-04-01T19:13:36.844Z,98714.81
2023-04-01T19:19:04.559Z,98711.27
2023-04-01T19:24:41.262Z,98725.02
2023-04-01T19:30:01.256Z,98723.63
2023-04-01T19:35:21.966Z,98728.83
2023-04-01T19:40:54.518Z,98736.98
2023-04-01T19:46:10.392Z,98742.73
2023-04-01T19:51:26.875Z,98751.40
2023-04-01T19:56:42.644Z,98760.84
2023-04-01T20:01:55.961Z,98770.00
2023-04-01T20:07:09.973Z,98779.25
2023-04-01T20:12:27.589Z,98785.20
2023-04-01T20:17:43.663Z,98792.77
2023-04-01T20:23:22.782Z,98806.19
2023-04-01T20:28:40.584Z,98811.14
2023-04-01T20:34:08.811Z,98822.26
2023-04-01T20:39:44.081Z,98824.34
2023-04-01T20:45:02.921Z,98832.64
2023-04-01T20:50:22.920Z,98838.85
2023-04-01T20:55:56.623Z,98837.48
2023-04-01T21:01:16.505Z,98849.77
2023-04-01T21:06:39.737Z,98856.96
2023-04-01T21:11:55.017Z,98865.75
2023-04-01T21:17:11.556Z,98869.77
2023-04-01T21:22:47.198Z,98880.46
2023-04-01T21:28:09.191Z,98882.27
2023-04-01T21:33:33.342Z,98883.26
2023-04-01T21:38:59.922Z,98886.09
2023-04-01T21:44:28.781Z,98889.13
2023-04-01T21:50:06.279Z,98893.23
2023-04-01T21:55:39.926Z,98897.13
2023-04-01T22:00:56.633Z,98907.77
2023-04-01T22:06:24.914Z,98906.83
2023-04-01T22:11:46.099Z,98912.23
2023-04-01T22:17:04.772Z,98915.20
2023-04-01T22:22:21.991Z,98916.16
2023-04-01T22:27:38.192Z,98922.14
2023-04-01T22:32:49.537Z,98933.20
2023-04-01T22:38:06.285Z,98940.88
2023-04-01T22:43:19.051Z,98950.86
2023-04-01T22:48:34.284Z,98952.77
2023-04-01T22:54:02.064Z,98957.46
2023-04-01T22:59:16.920Z,98961.25
2023-04-01T23:04:33.884Z,98968.32
2023-04-01T23:09:42.040Z,98970.60
2023-04-01T23:14:53.844Z,98976.27
2023-04-01T23:20:10.249Z,98976.44
2023-04-01T23:25:30.610Z,98983.70
2023-04-01T23:30:54.591Z,98989.27
2023-04-01T23:36:08.179Z,98990.92
2023-04-01T23:41:29.322Z,99000.04
2023-04-01T23:46:39.325Z,99006.48
2023-04-01T23:51:56.068Z,99010.85
2023-04-01T23:57:07.141Z,99014.48
